This is the latest recevied weather packets stored in our database for station/object KK7AZD-13. If no packets are shown the sender has not sent any weather packets the latest 10 day(s).
| Time | Temp. | Humidity | Pressure | Rain* | Wind** | Luminosity | Snow |
|---|---|---|---|---|---|---|---|
| 1777469230 | -1.11° C | 89% | 1020.8 hPa | 0 mm | - | 13 W/m² | - |
| 1777468330 | -1.67° C | 90% | 1020.7 hPa | 0 mm | - | 5 W/m² | - |
| 1777467429 | -1.67° C | 90% | 1020.8 hPa | 0 mm | - | 0 W/m² | - |
| 1777466526 | -1.67° C | 90% | 1020.6 hPa | 0 mm | - | 0 W/m² | - |
| 1777465627 | -1.11° C | 89% | 1020.5 hPa | 0 mm | - | 0 W/m² | - |
| 1777464722 | -1.11° C | 90% | 1020.4 hPa | 0 mm | - | 0 W/m² | - |
| 1777463820 | -1.11° C | 89% | 1020.4 hPa | 0 mm | - | 0 W/m² | - |
| 1777462918 | -1.11° C | 89% | 1020.5 hPa | 0 mm | - | 0 W/m² | - |
| 1777462017 | -1.67° C | 88% | 1020.5 hPa | 0 mm | - | 0 W/m² | - |
| 1777461117 | -1.11° C | 88% | 1020.6 hPa | 0 mm | - | 0 W/m² | - |
| 1777460217 | -0.56° C | 87% | 1020.6 hPa | 0 mm | - | 0 W/m² | - |
| 1777459314 | -1.11° C | 88% | 1020.7 hPa | 0 mm | - | 0 W/m² | - |
| 1777458411 | 0° C | 87% | 1020.4 hPa | 0 mm | - | 0 W/m² | - |
| 1777457508 | 0° C | 85% | 1020.6 hPa | 0 mm | - | 0 W/m² | - |
| 1777456607 | 0° C | 86% | 1020.5 hPa | 0 mm | - | 0 W/m² | - |
| 1777455707 | 0.56° C | 85% | 1020.6 hPa | 0 mm | - | 0 W/m² | - |
| 1777454804 | 1.11° C | 82% | 1020.5 hPa | 0 mm | - | 0 W/m² | - |
| 1777453905 | 0° C | 85% | 1020.4 hPa | 0 mm | - | 0 W/m² | - |
| 1777453002 | 1.67° C | 80% | 1020.5 hPa | 0 mm | - | 0 W/m² | - |
| 1777452096 | 2.78° C | 78% | 1020.8 hPa | 0 mm | - | 0 W/m² | - |
| 1777451195 | 1.67° C | 81% | 1020.6 hPa | 0 mm | - | 0 W/m² | - |
| 1777450289 | 3.33° C | 76% | 1020.5 hPa | 0 mm | - | 0 W/m² | - |
| 1777449384 | 2.78° C | 77% | 1020.6 hPa | 0 mm | - | 0 W/m² | - |
| 1777448479 | 3.89° C | 74% | 1020.6 hPa | 0 mm | - | 0 W/m² | - |
| 1777447574 | 5.56° C | 70% | 1020.4 hPa | 0 mm | - | 0 W/m² | - |
* Rain latest hour (hover to see other rain measurements)
** Current wind speed in m/s (hover to see current wind gust speed)